»·PEaware :: N8CF KAMA-KELP

N8CF :: KAMA-KELP

FLIGHT INFORMATION

Flight Status: Arrived
Operator: Privately registered:
United States
More flights under this callsign
Pilot: Austin M. (5128)
Aircraft: BEECH AIRCRAFT BEECH AIRLINER
(B190)
More flights by this aircraft type
Origin: KAMA Amarillo Intl
United States
Destination: KELP El Paso Intl
United States
More flights between these airports :: More routes between these airports
Route: +YACUL V280 ELP
File this flight plan on PilotEdge
Remarks:
Altitude:
(Current/Filed)
220ft
Speed:
(Current/Filed)
220kts
Departed: 26-Jul-17 05:32 PM
Arrived: 26-Jul-17 06:48 PM
Distance/Time
Traveled:
311nm/1:16
Distance/Time
To Go:
Arrived

Flight Plot

Page will automatically refresh every two minutes.

Flight plan parsing failed; only flown route is shown


Map Options




Map Legend


Flown Route
Filed Route
Departure Airport
Arrival Airport
Navaid (VOR, NDB)
Fix

Horizontal Profiles

Position Reports

Time Latitude Longitude Heading Altitude Ground
Speed
26-Jul-17 17:26 35.217698 -101.709386 286 3611ft 0kts
26-Jul-17 17:27 35.217698 -101.709386 286 3611ft 0kts
26-Jul-17 17:28 35.217698 -101.709386 286 3611ft 0kts
26-Jul-17 17:29 35.217698 -101.709386 286 3611ft 0kts
26-Jul-17 17:30 35.220581 -101.708015 45 3608ft 22kts
26-Jul-17 17:31 35.225296 -101.702080 46 3604ft 24kts
26-Jul-17 17:32 35.229488 -101.700050 319 3601ft 0kts
26-Jul-17 17:33 35.229488 -101.700050 319 3601ft 0kts
26-Jul-17 17:34 35.228858 -101.702634 221 3601ft 40kts
26-Jul-17 17:35 35.201228 -101.738137 223 5020ft 183kts
26-Jul-17 17:36 35.163393 -101.784045 223 7035ft 199kts
26-Jul-17 17:37 35.129193 -101.837645 232 9028ft 201kts
26-Jul-17 17:38 35.097352 -101.891863 233 11000ft 194kts
26-Jul-17 17:39 35.067028 -101.943987 234 12970ft 183kts
26-Jul-17 17:40 35.038952 -101.992271 234 14927ft 171kts
26-Jul-17 17:41 35.012730 -102.037290 235 16872ft 155kts
26-Jul-17 17:42 34.982131 -102.089773 235 17048ft 222kts
26-Jul-17 17:43 34.941985 -102.153916 230 17037ft 252kts
26-Jul-17 17:44 34.897390 -102.222766 229 17039ft 264kts
26-Jul-17 17:45 34.851515 -102.293350 229 17038ft 267kts
26-Jul-17 17:46 34.805388 -102.364276 229 17038ft 268kts
26-Jul-17 17:47 34.759165 -102.435223 229 17037ft 269kts
26-Jul-17 17:48 34.715180 -102.502676 229 17956ft 243kts
26-Jul-17 17:49 34.674639 -102.564685 228 18916ft 229kts
26-Jul-17 17:50 34.635853 -102.623899 228 19888ft 221kts
26-Jul-17 17:51 34.597887 -102.681749 228 20871ft 219kts
26-Jul-17 17:52 34.559709 -102.739823 227 21860ft 221kts
26-Jul-17 17:53 34.519495 -102.800784 228 22154ft 248kts
26-Jul-17 17:54 34.469545 -102.862344 215 22155ft 264kts
26-Jul-17 17:55 34.410839 -102.917524 215 22151ft 273kts
26-Jul-17 17:56 34.350625 -102.974115 215 22151ft 277kts
26-Jul-17 17:57 34.289523 -103.031424 215 22152ft 278kts
26-Jul-17 17:58 34.228584 -103.088482 215 22154ft 279kts
26-Jul-17 17:59 34.167835 -103.145629 215 22154ft 278kts
26-Jul-17 18:00 34.106731 -103.202755 215 22157ft 278kts
26-Jul-17 18:01 34.045801 -103.259513 215 22157ft 278kts
26-Jul-17 18:02 33.993175 -103.308428 215 22157ft 277kts
26-Jul-17 18:03 33.932043 -103.365144 215 22156ft 277kts
26-Jul-17 18:04 33.870928 -103.421745 215 22156ft 277kts
26-Jul-17 18:05 33.814903 -103.483771 240 22226ft 278kts
26-Jul-17 18:06 33.780192 -103.567987 241 22156ft 282kts
26-Jul-17 18:07 33.745121 -103.652446 241 22156ft 282kts
26-Jul-17 18:08 33.710058 -103.736611 241 22146ft 283kts
26-Jul-17 18:09 33.682673 -103.802170 241 22131ft 283kts
26-Jul-17 18:10 33.647316 -103.886648 241 22112ft 284kts
26-Jul-17 18:11 33.611913 -103.971012 241 22101ft 283kts
26-Jul-17 18:12 33.576533 -104.055101 241 22110ft 283kts
26-Jul-17 18:13 33.541330 -104.138934 240 22109ft 283kts
26-Jul-17 18:14 33.506026 -104.222904 240 22109ft 283kts
26-Jul-17 18:15 33.470395 -104.307025 240 22109ft 283kts
26-Jul-17 18:16 33.434951 -104.390460 240 22112ft 283kts
26-Jul-17 18:17 33.399112 -104.474619 240 22112ft 284kts
26-Jul-17 18:18 33.363323 -104.558475 240 22112ft 284kts
26-Jul-17 18:19 33.320197 -104.634682 213 22181ft 275kts
26-Jul-17 18:20 33.257466 -104.688229 213 22112ft 278kts
26-Jul-17 18:21 33.194539 -104.741885 213 22112ft 279kts
26-Jul-17 18:22 33.131340 -104.795690 213 22112ft 279kts
26-Jul-17 18:23 33.068319 -104.849302 213 22114ft 280kts
26-Jul-17 18:24 33.004624 -104.903301 212 22134ft 283kts
26-Jul-17 18:25 32.940276 -104.957689 213 22191ft 288kts
26-Jul-17 18:26 32.874392 -105.013368 213 22193ft 293kts
26-Jul-17 18:27 32.807424 -105.069855 214 22143ft 298kts
26-Jul-17 18:28 32.740521 -105.126389 214 22120ft 299kts
26-Jul-17 18:29 32.672919 -105.183493 214 22130ft 299kts
26-Jul-17 18:30 32.605302 -105.240231 213 21710ft 293kts
26-Jul-17 18:31 32.540560 -105.294406 214 20704ft 283kts
26-Jul-17 18:32 32.477701 -105.353407 218 19587ft 293kts
26-Jul-17 18:33 32.415084 -105.413663 218 18660ft 289kts
26-Jul-17 18:34 32.353278 -105.472980 218 17752ft 286kts
26-Jul-17 18:35 32.292029 -105.531634 218 16878ft 278kts
26-Jul-17 18:36 32.232813 -105.588244 218 15670ft 271kts
26-Jul-17 18:37 32.175572 -105.643000 218 15082ft 245kts
26-Jul-17 18:38 32.126288 -105.699998 240 14120ft 252kts
26-Jul-17 18:39 32.093296 -105.770211 241 13364ft 243kts
26-Jul-17 18:40 32.061115 -105.838891 241 12207ft 235kts
26-Jul-17 18:41 32.030253 -105.905761 241 10812ft 232kts
26-Jul-17 18:42 31.999261 -105.971858 241 9492ft 229kts
26-Jul-17 18:43 31.968917 -106.036275 240 8531ft 225kts
26-Jul-17 18:44 31.928157 -106.088152 200 7717ft 223kts
26-Jul-17 18:45 31.872507 -106.112459 198 6826ft 211kts
26-Jul-17 18:46 31.817931 -106.135901 198 6810ft 210kts
26-Jul-17 18:47 31.791932 -106.189419 271 6485ft 222kts
26-Jul-17 18:48 31.794670 -106.248645 272 5911ft 198kts
26-Jul-17 18:49 31.797514 -106.298784 273 5708ft 157kts
26-Jul-17 18:50 31.799897 -106.343952 272 4261ft 131kts
26-Jul-17 18:51 31.801445 -106.377015 271 3942ft 27kts
26-Jul-17 18:52 31.799932 -106.380171 269 3936ft 54kts
26-Jul-17 18:53 31.799755 -106.392105 253 3926ft 0kts
26-Jul-17 18:54 31.799755 -106.392105 253 3926ft 0kts

Navigation Log

Ident Type
Flight plan parsing failed, navigation log unavailable